Pagrindinis puslapis
METAR-TAF:

METAR-TAF

Oro uostai :

Limonas, Kosta Rika

platuma: 10-00N, ilguma: 083-03W, Aukštis: 5 m

Dabartinis oras

Ataskaita buvo paskelbta 15 minutes, ne 20:00 UTC
Vėjas 6 kt iš Šiaurės/Šiaurės Rytų
Temperatūra 30°C
Drėgmė 70%
Slėgis 1009 hPa
Matomumas 10 km arba daugiau
nėra debesų žemiau 1500 m ir nėra kamuolinių lietaus debesų

METAR: MRLM 222000Z 03006KT CAVOK 30/24 A2980

Laikas: 14:15 (20:15 UTC)

Prognozė

Ataskaita buvo paskelbta 3 valandos ir 15 minutes, ne 17:00 UTC
Prognozė galioja nuo 22 metu 18 UTC su 23 metu 18 UTC
Vėjas 5 kt iš Šiaurės Rytų
Matomumas 10 km arba daugiau
Mažai debesys ne aukštis 3000 ft
Tapsmas
nuo 23 metu 00 UTC su 23 metu 02 UTC
Vėjas 4 kt iš Vakarų/Pietvakarių
Tapsmas
nuo 23 metu 14 UTC su 23 metu 16 UTC
Vėjas 5 kt iš Šiaurės/Šiaurės Rytų

TAF: MRLM 221700Z 2218/2318 05005KT 9999 FEW030 TX31/2221Z TN22/2311Z BECMG 2300/2302 25004KT BECMG 2314/2316 03005KT

Orai ataskaitas ir orų prognozės (METAR, TAF).

turimą stotys yra geltonos ir raudonos taškus žemėlapyje.

Perkelti pele per norėdami pamatyti stoties vardą.

Tada spustelėkite, norėdami matyti oro stebėjimo ir prognozės.

Norėdami pakeisti žemėlapį: spustelėkite ant žalios mygtukų su juodo kryžiaus žemyn,; žalią mygtuką su brūkšneliu, jei norite nutolinti; arba žalių rodyklių gretimoms žemėlapius.


METAR-TAF: